»·PEaware :: N444FG KSNA-KCMA

N444FG :: KSNA-KCMA

FLIGHT INFORMATION

Flight Status: Arrived
Operator: Privately registered:
United States
More flights under this callsign
Pilot: Bill F. (18685)
Aircraft: PIPER PA-28R-201 ARROW
(P28R)
More flights by this aircraft type
Origin: KSNA John Wayne-Orange Co
United States
Destination: KCMA Camarillo
United States
More flights between these airports :: More routes between these airports
Route: +
File this flight plan on PilotEdge
Remarks:
Altitude:
(Current/Filed)
4,500ft
Speed:
(Current/Filed)
0kts
Departed: 31-Jul-19 07:24 PM
Arrived: 31-Jul-19 08:02 PM
Distance/Time
Traveled:
68nm/0:37
Distance/Time
To Go:
Arrived

Flight Plot

Page will automatically refresh every two minutes.


Map Options




Map Legend


Flown Route
Filed Route
Departure Airport
Arrival Airport
Navaid (VOR, NDB)
Fix

Horizontal Profiles

Position Reports

Time Latitude Longitude Heading Altitude Ground
Speed
31-Jul-19 19:11 33.667622 -117.870426 220 59ft 0kts
31-Jul-19 19:12 33.667622 -117.870426 220 59ft 0kts
31-Jul-19 19:13 33.668025 -117.871173 308 59ft 0kts
31-Jul-19 19:14 33.668076 -117.871249 308 59ft 3kts
31-Jul-19 19:15 33.670199 -117.869777 39 59ft 14kts
31-Jul-19 19:16 33.673304 -117.867600 40 59ft 3kts
31-Jul-19 19:17 33.673308 -117.867596 40 59ft 0kts
31-Jul-19 19:18 33.673308 -117.867596 40 59ft 0kts
31-Jul-19 19:19 33.673500 -117.867444 29 59ft 5kts
31-Jul-19 19:20 33.677046 -117.865195 27 59ft 12kts
31-Jul-19 19:21 33.679985 -117.863649 297 59ft 0kts
31-Jul-19 19:22 33.679985 -117.863649 297 59ft 0kts
31-Jul-19 19:23 33.671841 -117.868881 203 387ft 69kts
31-Jul-19 19:24 33.662544 -117.892378 244 1518ft 85kts
31-Jul-19 19:25 33.652995 -117.915751 241 2653ft 83kts
31-Jul-19 19:26 33.643773 -117.938094 241 3651ft 84kts
31-Jul-19 19:27 33.634596 -117.963735 256 4528ft 103kts
31-Jul-19 19:28 33.651977 -117.999356 310 4488ft 138kts
31-Jul-19 19:29 33.675439 -118.027713 308 4487ft 137kts
31-Jul-19 19:30 33.697397 -118.065028 296 4486ft 135kts
31-Jul-19 19:31 33.713605 -118.100324 290 4486ft 135kts
31-Jul-19 19:32 33.726698 -118.135523 290 4487ft 134kts
31-Jul-19 19:33 33.741587 -118.175424 290 4488ft 133kts
31-Jul-19 19:34 33.756817 -118.216076 290 4489ft 132kts
31-Jul-19 19:35 33.771924 -118.256343 290 4491ft 131kts
31-Jul-19 19:36 33.793848 -118.290759 319 4493ft 135kts
31-Jul-19 19:37 33.824888 -118.316613 320 4496ft 135kts
31-Jul-19 19:38 33.856569 -118.341937 326 4498ft 137kts
31-Jul-19 19:39 33.889709 -118.363507 325 4501ft 138kts
31-Jul-19 19:40 33.922233 -118.385817 325 4503ft 139kts
31-Jul-19 19:41 33.955160 -118.409357 323 4501ft 139kts
31-Jul-19 19:42 33.988144 -118.435156 322 4499ft 140kts
31-Jul-19 19:44 34.020900 -118.460929 323 4499ft 141kts
31-Jul-19 19:45 34.053539 -118.486722 323 4499ft 141kts
31-Jul-19 19:46 34.086622 -118.512926 323 4499ft 141kts
31-Jul-19 19:47 34.113043 -118.545412 285 4495ft 135kts
31-Jul-19 19:48 34.125219 -118.588566 285 4495ft 135kts
31-Jul-19 19:49 34.137172 -118.631721 284 4496ft 134kts
31-Jul-19 19:50 34.148085 -118.673465 283 4499ft 133kts
31-Jul-19 19:51 34.159136 -118.716331 283 4501ft 132kts
31-Jul-19 19:52 34.169932 -118.758952 283 4503ft 132kts
31-Jul-19 19:53 34.177472 -118.799737 278 4617ft 124kts
31-Jul-19 19:54 34.182825 -118.839194 279 4297ft 117kts
31-Jul-19 19:55 34.191678 -118.876160 285 4021ft 110kts
31-Jul-19 19:56 34.200745 -118.912249 282 3530ft 116kts
31-Jul-19 19:57 34.209198 -118.950893 285 2850ft 118kts
31-Jul-19 19:58 34.212756 -118.990696 269 1928ft 115kts
31-Jul-19 19:59 34.213623 -119.026348 268 980ft 81kts
31-Jul-19 20:00 34.213683 -119.052961 268 719ft 83kts
31-Jul-19 20:01 34.213631 -119.075758 272 238ft 55kts
31-Jul-19 20:01 34.213513 -119.090186 236 80ft 27kts
31-Jul-19 20:03 34.211394 -119.089745 137 80ft 16kts
31-Jul-19 20:04 34.210898 -119.083832 88 80ft 24kts
31-Jul-19 20:04 34.209903 -119.078728 162 80ft 8kts

Navigation Log

Ident Type
Flight plan parsing failed, navigation log unavailable